Time;durP1;ratioP1;P1;durP2;ratioP2;P2;SDS_P1;SDS_P2;PMS_P1;PMS_P2;Temp;Humidity;BMP_temperature;BMP_pressure;BME280_temperature;BME280_humidity;BME280_pressure;Samples;Min_cycle;Max_cycle;Signal;HPM_P1;HPM_P2
2022/01/27 00:05:04;;;;;;;;;;;-4.60;84.50;;;;;;5020678;28;92324;-44
2022/01/27 00:07:32;;;;;;;;;;;-4.60;84.50;;;;;;5020401;28;94492;-44
2022/01/27 00:10:16;;;;;;;;;;;-4.60;84.40;;;;;;5023792;28;92136;-44
2022/01/27 00:12:42;;;;;;;;;;;-4.60;84.50;;;;;;5020071;28;94379;-44
2022/01/27 00:15:09;;;;;;;;;;;-4.60;84.40;;;;;;5020645;28;92239;-44
2022/01/27 00:17:40;;;;;;;;;;;-4.60;84.50;;;;;;5020927;28;93670;-44
2022/01/27 00:20:06;;;;;;;;;;;-4.60;84.40;;;;;;5019969;28;94359;-44
2022/01/27 00:22:31;;;;;;;;;;;-4.50;84.40;;;;;;5020622;28;92175;-44
2022/01/27 00:24:57;;;;;;;;;;;-4.50;84.40;;;;;;5019890;28;94212;-44
2022/01/27 00:27:22;;;;;;;;;;;-4.50;84.40;;;;;;5019809;28;94853;-44
2022/01/27 00:29:48;;;;;;;;;;;-4.50;84.40;;;;;;5020317;28;92200;-44
2022/01/27 00:32:13;;;;;;;;;;;-4.50;84.40;;;;;;5022978;28;94052;-44
2022/01/27 00:34:39;;;;;;;;;;;-4.50;84.40;;;;;;5019638;28;92183;-44
2022/01/27 00:37:05;;;;;;;;;;;-4.50;84.40;;;;;;5020113;28;94216;-44
2022/01/27 00:39:30;;;;;;;;;;;-4.50;84.40;;;;;;5019791;28;95005;-44
2022/01/27 00:41:56;;;;;;;;;;;-4.50;84.40;;;;;;5020223;28;91474;-44
2022/01/27 00:44:21;;;;;;;;;;;-4.50;84.40;;;;;;5020232;28;93383;-44
2022/01/27 00:46:47;;;;;;;;;;;-4.50;84.30;;;;;;5019361;28;93449;-44
2022/01/27 00:49:13;;;;;;;;;;;-4.50;84.40;;;;;;5019600;28;93112;-44
2022/01/27 00:51:42;;;;;;;;;;;-4.50;84.40;;;;;;5020033;28;95019;-44
2022/01/27 00:54:14;;;;;;;;;;;-4.50;84.40;;;;;;5022608;28;95015;-44
2022/01/27 00:56:53;;;;;;;;;;;-4.40;84.40;;;;;;5019968;28;93830;-44
2022/01/27 01:04:34;;;;;;;;;;;-4.50;84.30;;;;;;5018595;28;92384;-44
2022/01/27 01:07:01;;;;;;;;;;;-4.50;84.30;;;;;;5020072;28;94536;-44
2022/01/27 01:13:26;;;;;;;;;;;-4.40;84.40;;;;;;5020229;28;91892;-44
2022/01/27 01:15:21;;;;;;;;;;;-4.50;84.30;;;;;;5017039;28;95025;-44
2022/01/27 01:18:17;;;;;;;;;;;-4.40;84.30;;;;;;5022797;28;91925;-44
2022/01/27 01:21:23;;;;;;;;;;;-4.40;84.30;;;;;;5019332;28;94488;-44
2022/01/27 01:29:50;;;;;;;;;;;-4.40;84.40;;;;;;5017323;28;92302;-44
2022/01/27 01:32:25;;;;;;;;;;;-4.40;84.30;;;;;;5019381;28;92175;-44
2022/01/27 01:34:52;;;;;;;;;;;-4.40;84.40;;;;;;5019998;28;93965;-44
2022/01/27 01:37:19;;;;;;;;;;;-4.40;84.40;;;;;;5018869;28;94381;-44
2022/01/27 01:39:44;;;;;;;;;;;-4.40;84.30;;;;;;5019557;28;92128;-44
2022/01/27 01:42:10;;;;;;;;;;;-4.40;84.40;;;;;;5021180;28;94177;-44
2022/01/27 01:44:36;;;;;;;;;;;-4.40;84.30;;;;;;5019462;28;92116;-44
2022/01/27 01:47:02;;;;;;;;;;;-4.40;84.30;;;;;;5021325;28;93824;-44
2022/01/27 01:49:28;;;;;;;;;;;-4.40;84.20;;;;;;5022636;28;92228;-44
2022/01/27 01:51:54;;;;;;;;;;;-4.40;84.20;;;;;;5022912;28;92132;-44
2022/01/27 01:54:20;;;;;;;;;;;-4.40;84.40;;;;;;5022967;28;92818;-44
2022/01/27 01:56:46;;;;;;;;;;;-4.40;84.20;;;;;;5022251;28;94305;-44
2022/01/27 01:59:11;;;;;;;;;;;-4.40;84.20;;;;;;5023446;28;91398;-44
2022/01/27 02:01:37;;;;;;;;;;;-4.40;84.30;;;;;;5025381;28;93540;-44
2022/01/27 02:04:07;;;;;;;;;;;-4.40;84.20;;;;;;5022519;28;92134;-44
2022/01/27 02:06:44;;;;;;;;;;;-4.40;84.20;;;;;;5022169;28;94134;-44
2022/01/27 02:19:51;;;;;;;;;;;-4.30;84.10;;;;;;5022925;28;92007;-44
2022/01/27 02:22:17;;;;;;;;;;;-4.30;84.20;;;;;;5022588;28;92864;-44
2022/01/27 02:24:43;;;;;;;;;;;-4.30;84.20;;;;;;5025531;28;93569;-44
2022/01/27 02:27:08;;;;;;;;;;;-4.30;84.20;;;;;;5022236;28;93313;-45
2022/01/27 02:29:34;;;;;;;;;;;-4.30;84.20;;;;;;5021750;28;94651;-44
2022/01/27 02:32:00;;;;;;;;;;;-4.30;84.30;;;;;;5021627;28;93031;-44
2022/01/27 02:34:26;;;;;;;;;;;-4.30;84.30;;;;;;5022252;28;95113;-44
2022/01/27 02:36:51;;;;;;;;;;;-4.30;84.20;;;;;;5021519;28;94355;-44
2022/01/27 02:39:18;;;;;;;;;;;-4.30;84.20;;;;;;5022311;28;91855;-44
2022/01/27 02:41:49;;;;;;;;;;;-4.30;84.20;;;;;;5021598;28;93634;-44
2022/01/27 02:44:24;;;;;;;;;;;-4.30;84.20;;;;;;5021578;28;94379;-44
2022/01/27 02:46:50;;;;;;;;;;;-4.30;84.20;;;;;;5025158;28;92140;-44
2022/01/27 02:49:15;;;;;;;;;;;-4.30;84.20;;;;;;5022036;28;93744;-44
2022/01/27 02:51:41;;;;;;;;;;;-4.30;84.20;;;;;;5022023;28;92129;-44
2022/01/27 02:54:06;;;;;;;;;;;-4.30;84.20;;;;;;5021894;28;94337;-44
2022/01/27 02:56:33;;;;;;;;;;;-4.30;84.30;;;;;;5020728;28;94292;-44
2022/01/27 02:58:58;;;;;;;;;;;-4.30;84.20;;;;;;5020982;28;92243;-44
2022/01/27 03:01:24;;;;;;;;;;;-4.30;84.40;;;;;;5021738;28;93834;-44
2022/01/27 03:03:49;;;;;;;;;;;-4.30;84.30;;;;;;5021430;28;95162;-44
2022/01/27 03:06:15;;;;;;;;;;;-4.30;84.40;;;;;;5021807;28;92215;-44
2022/01/27 03:08:40;;;;;;;;;;;-4.30;84.40;;;;;;5024196;28;93741;-44
2022/01/27 03:11:11;;;;;;;;;;;-4.30;84.30;;;;;;5021617;28;92072;-44
2022/01/27 03:13:36;;;;;;;;;;;-4.30;84.80;;;;;;5022098;28;93227;-44
2022/01/27 03:16:05;;;;;;;;;;;-4.30;84.20;;;;;;5020940;28;94783;-44
2022/01/27 03:18:31;;;;;;;;;;;-4.30;84.20;;;;;;5021554;28;92143;-44
2022/01/27 03:20:56;;;;;;;;;;;-4.30;84.20;;;;;;5021124;28;93869;-44
2022/01/27 03:23:22;;;;;;;;;;;-4.30;84.20;;;;;;5020942;28;94749;-44
2022/01/27 03:25:48;;;;;;;;;;;-4.20;84.20;;;;;;5021384;28;92095;-44
2022/01/27 03:28:14;;;;;;;;;;;-4.20;84.20;;;;;;5021327;28;93978;-44
2022/01/27 03:30:40;;;;;;;;;;;-4.20;84.10;;;;;;5023933;28;94750;-44
2022/01/27 03:33:05;;;;;;;;;;;-4.20;84.10;;;;;;5021252;28;93991;-44
2022/01/27 03:35:31;;;;;;;;;;;-4.20;84.20;;;;;;5020677;28;94522;-44
2022/01/27 03:37:56;;;;;;;;;;;-4.20;84.20;;;;;;5021858;28;91312;-44
2022/01/27 03:40:22;;;;;;;;;;;-4.20;84.20;;;;;;5021208;28;93679;-44
2022/01/27 03:43:02;;;;;;;;;;;-4.20;84.20;;;;;;5020180;28;94577;-44
2022/01/27 03:45:28;;;;;;;;;;;-4.20;84.00;;;;;;5020753;28;92841;-44
2022/01/27 03:47:53;;;;;;;;;;;-4.20;84.10;;;;;;5021020;28;94693;-44
2022/01/27 03:50:19;;;;;;;;;;;-4.20;84.10;;;;;;5020600;28;94618;-44
2022/01/27 03:52:44;;;;;;;;;;;-4.20;84.00;;;;;;5023878;28;92086;-44
2022/01/27 03:55:10;;;;;;;;;;;-4.20;84.10;;;;;;5020861;28;93340;-44
2022/01/27 03:57:35;;;;;;;;;;;-4.20;84.10;;;;;;5020871;28;92164;-44
2022/01/27 04:00:01;;;;;;;;;;;-4.20;84.00;;;;;;5020939;28;93961;-44
2022/01/27 04:02:26;;;;;;;;;;;-4.20;84.00;;;;;;5020835;28;92786;-44
2022/01/27 04:04:52;;;;;;;;;;;-4.20;84.00;;;;;;5020762;28;92137;-44
2022/01/27 04:07:17;;;;;;;;;;;-4.20;84.00;;;;;;5020731;28;93323;-44
2022/01/27 04:09:43;;;;;;;;;;;-4.20;84.10;;;;;;5019685;28;95637;-44
2022/01/27 04:12:09;;;;;;;;;;;-4.20;84.10;;;;;;5023853;28;92168;-44
2022/01/27 04:14:34;;;;;;;;;;;-4.20;84.00;;;;;;5020342;28;94540;-44
2022/01/27 04:17:00;;;;;;;;;;;-4.20;84.00;;;;;;5020753;28;92532;-44
2022/01/27 04:19:25;;;;;;;;;;;-4.20;84.00;;;;;;5020588;28;93678;-44
2022/01/27 04:21:51;;;;;;;;;;;-4.20;84.10;;;;;;5020093;28;94436;-44
2022/01/27 04:24:17;;;;;;;;;;;-4.20;84.00;;;;;;5020762;28;92224;-44
2022/01/27 04:26:47;;;;;;;;;;;-4.10;84.00;;;;;;5020877;28;94297;-44
2022/01/27 04:29:15;;;;;;;;;;;-4.10;84.00;;;;;;5020134;28;94409;-44
2022/01/27 04:31:43;;;;;;;;;;;-4.10;84.10;;;;;;5020509;28;92179;-44
2022/01/27 04:34:09;;;;;;;;;;;-4.20;84.10;;;;;;5022479;28;93818;-44
2022/01/27 04:36:35;;;;;;;;;;;-4.10;84.00;;;;;;5020135;28;92171;-44
2022/01/27 04:41:40;;;;;;;;;;;-4.10;84.00;;;;;;5019512;28;92247;-44
2022/01/27 04:44:24;;;;;;;;;;;-4.10;84.10;;;;;;5020363;28;92194;-44
2022/01/27 04:47:02;;;;;;;;;;;-4.10;84.00;;;;;;5020349;28;93701;-44
2022/01/27 04:49:28;;;;;;;;;;;-4.10;84.00;;;;;;5019947;28;94625;-44
2022/01/27 04:51:54;;;;;;;;;;;-4.20;84.00;;;;;;5020589;28;91443;-44
2022/01/27 04:56:45;;;;;;;;;;;-4.10;84.10;;;;;;5022863;28;92930;-44
2022/01/27 04:59:17;;;;;;;;;;;-4.10;84.00;;;;;;5019402;28;93984;-44
2022/01/27 05:01:51;;;;;;;;;;;-4.10;84.10;;;;;;5019479;28;93732;-44
2022/01/27 05:04:19;;;;;;;;;;;-4.10;84.10;;;;;;5019996;28;91994;-44
2022/01/27 05:06:45;;;;;;;;;;;-4.10;84.00;;;;;;5020091;28;93777;-44
2022/01/27 05:09:11;;;;;;;;;;;-4.10;84.00;;;;;;5019530;28;94945;-44
2022/01/27 05:11:45;;;;;;;;;;;-4.10;84.00;;;;;;5019946;28;91902;-44
2022/01/27 05:14:18;;;;;;;;;;;-4.10;84.10;;;;;;5019754;28;94269;-44
2022/01/27 05:16:43;;;;;;;;;;;-4.10;84.00;;;;;;5020081;28;92672;-44
2022/01/27 05:19:09;;;;;;;;;;;-4.10;84.10;;;;;;5023049;28;92207;-44
2022/01/27 05:21:35;;;;;;;;;;;-4.10;84.00;;;;;;5020434;28;94268;-44
2022/01/27 05:24:01;;;;;;;;;;;-4.10;84.00;;;;;;5022795;28;93065;-44
2022/01/27 05:26:27;;;;;;;;;;;-4.10;84.00;;;;;;5023504;28;93282;-44
2022/01/27 05:28:52;;;;;;;;;;;-4.10;83.90;;;;;;5022514;28;94346;-44
2022/01/27 05:31:18;;;;;;;;;;;-4.00;83.80;;;;;;5023086;28;92125;-45
2022/01/27 05:33:43;;;;;;;;;;;-4.10;83.80;;;;;;5023218;28;93977;-44
2022/01/27 05:36:09;;;;;;;;;;;-4.10;84.00;;;;;;5022753;28;93459;-44
2022/01/27 05:38:37;;;;;;;;;;;-4.00;84.00;;;;;;5023283;28;92125;-44
2022/01/27 05:41:03;;;;;;;;;;;-4.00;84.00;;;;;;5025299;28;92296;-44
2022/01/27 05:43:29;;;;;;;;;;;-4.10;84.00;;;;;;5022862;28;92541;-45
2022/01/27 05:45:55;;;;;;;;;;;-4.00;84.00;;;;;;5022940;28;93874;-44
2022/01/27 05:48:20;;;;;;;;;;;-4.00;83.90;;;;;;5020424;28;97104;-44
2022/01/27 05:50:47;;;;;;;;;;;-4.00;83.80;;;;;;5023011;28;92221;-44
2022/01/27 05:53:12;;;;;;;;;;;-4.00;83.80;;;;;;5022856;28;93868;-44
2022/01/27 05:55:38;;;;;;;;;;;-4.10;83.80;;;;;;5022373;28;94487;-44
2022/01/27 05:58:03;;;;;;;;;;;-4.00;83.80;;;;;;5022781;28;92212;-44
2022/01/27 06:00:29;;;;;;;;;;;-4.00;84.10;;;;;;5025262;28;93931;-44
2022/01/27 06:02:54;;;;;;;;;;;-4.00;83.80;;;;;;5022631;28;92105;-44
2022/01/27 06:05:20;;;;;;;;;;;-4.00;83.90;;;;;;5023572;28;91973;-44
2022/01/27 06:07:46;;;;;;;;;;;-4.00;83.90;;;;;;5022232;28;94528;-44
2022/01/27 06:10:11;;;;;;;;;;;-4.00;83.80;;;;;;5022577;28;92226;-44
2022/01/27 06:12:51;;;;;;;;;;;-4.00;83.90;;;;;;5021950;28;94004;-44
2022/01/27 06:15:17;;;;;;;;;;;-4.00;84.60;;;;;;5021991;28;94359;-44
2022/01/27 06:17:43;;;;;;;;;;;-4.00;83.80;;;;;;5022562;28;92126;-44
2022/01/27 06:20:08;;;;;;;;;;;-4.00;83.90;;;;;;5023117;28;91947;-44
2022/01/27 06:22:34;;;;;;;;;;;-4.00;83.80;;;;;;5025189;28;94474;-44
2022/01/27 06:25:00;;;;;;;;;;;-4.00;83.90;;;;;;5022732;28;92838;-44
2022/01/27 06:27:25;;;;;;;;;;;-4.00;83.90;;;;;;5022014;28;94790;-44
2022/01/27 06:29:51;;;;;;;;;;;-4.00;83.90;;;;;;5023137;28;91432;-44
2022/01/27 06:32:16;;;;;;;;;;;-4.00;83.90;;;;;;5021741;28;93206;-44
2022/01/27 06:34:42;;;;;;;;;;;-3.90;83.80;;;;;;5021483;28;93405;-44
2022/01/27 06:37:08;;;;;;;;;;;-3.90;84.00;;;;;;5021706;28;93087;-44
2022/01/27 06:39:33;;;;;;;;;;;-4.00;84.20;;;;;;5022320;28;94957;-44
2022/01/27 06:42:01;;;;;;;;;;;-4.00;84.20;;;;;;5021309;28;94628;-44
2022/01/27 06:44:27;;;;;;;;;;;-4.00;84.10;;;;;;5025372;28;92030;-43
2022/01/27 06:46:52;;;;;;;;;;;-4.00;84.00;;;;;;5021481;28;93674;-44
2022/01/27 06:49:18;;;;;;;;;;;-3.90;84.10;;;;;;5022059;28;92151;-44
2022/01/27 06:51:44;;;;;;;;;;;-4.00;84.10;;;;;;5022151;28;93771;-44
2022/01/27 06:54:10;;;;;;;;;;;-4.00;84.20;;;;;;5022292;28;92474;-44
2022/01/27 06:56:36;;;;;;;;;;;-4.00;84.10;;;;;;5021689;28;92113;-44
2022/01/27 06:59:01;;;;;;;;;;;-3.90;84.10;;;;;;5021790;28;93597;-44
2022/01/27 07:01:27;;;;;;;;;;;-3.90;84.20;;;;;;5020533;28;95342;-44
2022/01/27 07:03:52;;;;;;;;;;;-3.90;83.90;;;;;;5022043;28;92235;-44
2022/01/27 07:06:18;;;;;;;;;;;-3.90;84.00;;;;;;5024220;28;93995;-44
2022/01/27 07:08:43;;;;;;;;;;;-3.90;84.10;;;;;;5022003;28;92006;-44
2022/01/27 07:11:09;;;;;;;;;;;-3.90;84.10;;;;;;5021641;28;94036;-44
2022/01/27 07:13:40;;;;;;;;;;;-3.90;83.90;;;;;;5020968;28;94165;-44
2022/01/27 07:16:06;;;;;;;;;;;-3.90;84.00;;;;;;5021848;28;92044;-44
2022/01/27 07:18:31;;;;;;;;;;;-3.90;84.00;;;;;;5022035;28;92781;-44
2022/01/27 07:20:57;;;;;;;;;;;-3.90;84.00;;;;;;5020939;28;93557;-44
2022/01/27 07:23:22;;;;;;;;;;;-3.90;83.90;;;;;;5021673;28;92099;-44
2022/01/27 07:25:48;;;;;;;;;;;-3.90;84.00;;;;;;5020865;28;93903;-44
2022/01/27 07:28:13;;;;;;;;;;;-3.90;84.10;;;;;;5023944;28;94042;-44
2022/01/27 07:30:39;;;;;;;;;;;-3.90;84.10;;;;;;5021580;28;93833;-44
2022/01/27 07:33:05;;;;;;;;;;;-3.90;84.20;;;;;;5020858;28;94299;-44
2022/01/27 07:35:31;;;;;;;;;;;-3.90;84.40;;;;;;5021660;28;92160;-44
2022/01/27 07:37:56;;;;;;;;;;;-3.90;84.40;;;;;;5021461;28;92455;-44
2022/01/27 07:40:22;;;;;;;;;;;-3.90;84.30;;;;;;5021105;28;91952;-44
2022/01/27 07:42:47;;;;;;;;;;;-3.90;84.30;;;;;;5021249;28;91495;-44
2022/01/27 07:45:13;;;;;;;;;;;-3.80;84.40;;;;;;5020919;28;92004;-44
2022/01/27 07:47:38;;;;;;;;;;;-3.80;84.20;;;;;;5020501;28;94745;-44
2022/01/27 07:50:04;;;;;;;;;;;-3.80;84.30;;;;;;5023527;28;93166;-44
2022/01/27 07:52:30;;;;;;;;;;;-3.80;84.20;;;;;;5020775;28;93315;-44
2022/01/27 07:54:55;;;;;;;;;;;-3.80;84.40;;;;;;5021035;28;92198;-44
2022/01/27 07:57:21;;;;;;;;;;;-3.80;84.40;;;;;;5020710;28;94333;-44
2022/01/27 07:59:46;;;;;;;;;;;-3.80;84.30;;;;;;5020332;28;94675;-44
2022/01/27 08:02:12;;;;;;;;;;;-3.80;84.40;;;;;;5021135;28;92246;-44
2022/01/27 08:04:37;;;;;;;;;;;-3.80;84.30;;;;;;5020961;28;93902;-44
2022/01/27 08:07:03;;;;;;;;;;;-3.80;84.30;;;;;;5020935;28;93844;-44
2022/01/27 08:09:29;;;;;;;;;;;-3.80;84.30;;;;;;5023908;28;92201;-44
2022/01/27 08:11:54;;;;;;;;;;;-3.80;84.30;;;;;;5020037;28;95131;-44
2022/01/27 08:14:20;;;;;;;;;;;-3.80;84.40;;;;;;5020179;28;93079;-44
2022/01/27 08:16:46;;;;;;;;;;;-3.80;84.50;;;;;;5020822;28;93811;-44
2022/01/27 08:19:11;;;;;;;;;;;-3.80;84.40;;;;;;5020075;28;94325;-44
2022/01/27 08:21:37;;;;;;;;;;;-3.70;84.60;;;;;;5019454;28;92251;-44
2022/01/27 08:24:02;;;;;;;;;;;-3.80;84.40;;;;;;5020656;28;94155;-44
2022/01/27 08:26:48;;;;;;;;;;;-3.80;84.40;;;;;;5019889;28;94263;-44
2022/01/27 08:29:19;;;;;;;;;;;-3.70;84.50;;;;;;5020605;28;92004;-44
2022/01/27 08:32:06;;;;;;;;;;;-3.70;84.40;;;;;;5023688;28;93749;-44
2022/01/27 08:34:36;;;;;;;;;;;-3.70;84.40;;;;;;5020489;28;92052;-44
2022/01/27 08:37:03;;;;;;;;;;;-3.70;84.40;;;;;;5020448;28;93895;-44
2022/01/27 08:39:29;;;;;;;;;;;-3.70;84.40;;;;;;5017937;28;97310;-44
2022/01/27 08:41:54;;;;;;;;;;;-3.70;84.60;;;;;;5020319;28;92174;-44
2022/01/27 08:44:20;;;;;;;;;;;-3.70;84.50;;;;;;5020352;28;93918;-44
2022/01/27 08:46:46;;;;;;;;;;;-3.70;84.50;;;;;;5020228;28;91970;-44
2022/01/27 08:49:11;;;;;;;;;;;-3.70;84.40;;;;;;5020314;28;91919;-44
2022/01/27 08:51:37;;;;;;;;;;;-3.70;84.50;;;;;;5020392;28;92323;-44
2022/01/27 08:54:03;;;;;;;;;;;-3.60;84.60;;;;;;5022913;28;95013;-44
2022/01/27 08:56:28;;;;;;;;;;;-3.60;84.40;;;;;;5019810;28;92747;-43
2022/01/27 08:58:54;;;;;;;;;;;-3.60;84.50;;;;;;5019500;28;94941;-44
2022/01/27 09:01:22;;;;;;;;;;;-3.60;84.40;;;;;;5020238;28;92123;-44
2022/01/27 09:03:48;;;;;;;;;;;-3.60;85.10;;;;;;5018046;28;95353;-44
2022/01/27 09:06:13;;;;;;;;;;;-3.60;84.40;;;;;;5019369;28;94471;-44
2022/01/27 09:08:39;;;;;;;;;;;-3.60;84.60;;;;;;5020166;28;92077;-44
2022/01/27 09:11:04;;;;;;;;;;;-3.60;84.60;;;;;;5020077;28;94159;-44
2022/01/27 09:13:30;;;;;;;;;;;-3.60;84.70;;;;;;5019686;28;94149;-44
2022/01/27 09:15:59;;;;;;;;;;;-3.50;84.70;;;;;;5022916;28;92189;-44
2022/01/27 09:18:24;;;;;;;;;;;-3.60;84.50;;;;;;5019180;28;94515;-44
2022/01/27 09:20:50;;;;;;;;;;;-3.50;84.70;;;;;;5020054;28;92444;-44
2022/01/27 09:23:16;;;;;;;;;;;-3.50;84.80;;;;;;5019743;28;93286;-44
2022/01/27 09:25:44;;;;;;;;;;;-3.50;84.70;;;;;;5019024;28;94424;-44
2022/01/27 09:28:11;;;;;;;;;;;-3.50;84.60;;;;;;5019017;28;93202;-44
2022/01/27 09:30:37;;;;;;;;;;;-3.50;84.40;;;;;;5019611;28;94463;-44
2022/01/27 09:33:03;;;;;;;;;;;-3.40;84.60;;;;;;5019144;28;94866;-44
2022/01/27 09:35:30;;;;;;;;;;;-3.40;84.70;;;;;;5019456;28;92132;-44
2022/01/27 09:37:56;;;;;;;;;;;-3.40;84.80;;;;;;5021962;28;93417;-44
2022/01/27 09:40:22;;;;;;;;;;;-3.40;84.80;;;;;;5019774;28;92156;-44
2022/01/27 09:42:53;;;;;;;;;;;-3.40;85.00;;;;;;5019342;28;93935;-44
2022/01/27 09:45:19;;;;;;;;;;;-3.40;84.90;;;;;;5019632;28;93524;-44
2022/01/27 09:47:54;;;;;;;;;;;-3.30;84.80;;;;;;5019506;28;92106;-44
2022/01/27 09:53:05;;;;;;;;;;;-3.40;84.80;;;;;;5018300;28;94898;-44
2022/01/27 09:55:30;;;;;;;;;;;-3.40;85.00;;;;;;5019260;28;92221;-44
2022/01/27 09:57:58;;;;;;;;;;;-3.40;85.20;;;;;;5019208;28;94073;-44
2022/01/27 10:00:24;;;;;;;;;;;-3.40;85.30;;;;;;5021895;28;94674;-44
2022/01/27 10:03:04;;;;;;;;;;;-3.40;85.40;;;;;;5019048;28;94243;-44
2022/01/27 10:05:30;;;;;;;;;;;-3.40;85.60;;;;;;5018780;28;94591;-44
2022/01/27 10:08:14;;;;;;;;;;;-3.40;85.40;;;;;;5020798;28;92166;-44
2022/01/27 10:10:42;;;;;;;;;;;-3.40;85.50;;;;;;5023365;28;93944;-44
2022/01/27 10:13:10;;;;;;;;;;;-3.40;85.60;;;;;;5022051;28;94255;-44
2022/01/27 10:15:37;;;;;;;;;;;-3.40;85.50;;;;;;5022470;28;92282;-44
2022/01/27 10:18:04;;;;;;;;;;;-3.40;85.50;;;;;;5021963;28;93713;-44
2022/01/27 10:20:30;;;;;;;;;;;-3.30;85.60;;;;;;5025027;28;94251;-44
2022/01/27 10:23:08;;;;;;;;;;;-3.30;85.70;;;;;;5022379;28;92753;-44
2022/01/27 10:25:34;;;;;;;;;;;-3.30;85.90;;;;;;5022074;28;94080;-44
2022/01/27 10:28:10;;;;;;;;;;;-3.30;85.70;;;;;;5022223;28;92219;-44
2022/01/27 10:30:36;;;;;;;;;;;-3.30;85.70;;;;;;5022557;28;93865;-44
2022/01/27 10:33:03;;;;;;;;;;;-3.30;85.70;;;;;;5021726;28;94584;-45
2022/01/27 10:35:29;;;;;;;;;;;-3.30;85.80;;;;;;5022846;28;91286;-44
2022/01/27 10:37:55;;;;;;;;;;;-3.30;85.70;;;;;;5022246;28;93428;-44
2022/01/27 10:40:41;;;;;;;;;;;-3.30;86.10;;;;;;5021597;28;94497;-44
2022/01/27 10:43:07;;;;;;;;;;;-3.30;85.90;;;;;;5024602;27;93188;-44
2022/01/27 10:45:32;;;;;;;;;;;-3.20;86.20;;;;;;5021520;28;94426;-44
2022/01/27 10:48:19;;;;;;;;;;;-3.20;86.10;;;;;;5022080;28;92202;-44
2022/01/27 10:51:02;;;;;;;;;;;-3.30;85.90;;;;;;5022234;28;94000;-44
2022/01/27 10:53:48;;;;;;;;;;;-3.20;86.00;;;;;;5021816;28;94603;-44
2022/01/27 10:56:16;;;;;;;;;;;-3.20;86.10;;;;;;5021843;28;92259;-44
2022/01/27 10:58:42;;;;;;;;;;;-3.20;86.00;;;;;;5021949;28;93819;-44
2022/01/27 11:01:08;;;;;;;;;;;-3.10;85.80;;;;;;5021692;28;94047;-44
2022/01/27 11:03:35;;;;;;;;;;;-3.10;85.90;;;;;;5021869;28;92254;-45
2022/01/27 11:06:05;;;;;;;;;;;-3.20;85.90;;;;;;5024339;28;93435;-44
2022/01/27 11:08:31;;;;;;;;;;;-3.20;86.00;;;;;;5021038;28;93064;-44
2022/01/27 11:10:57;;;;;;;;;;;-3.20;85.90;;;;;;5021644;28;94839;-44
2022/01/27 11:13:24;;;;;;;;;;;-3.20;86.20;;;;;;5021068;28;94468;-44
2022/01/27 11:15:52;;;;;;;;;;;-3.20;86.20;;;;;;5021736;28;92218;-44
2022/01/27 11:18:20;;;;;;;;;;;-3.20;86.40;;;;;;5021551;28;92014;-45
2022/01/27 11:23:46;;;;;;;;;;;-3.20;86.50;;;;;;5021698;28;92137;-44
2022/01/27 11:26:05;;;;;;;;;;;-3.10;86.80;;;;;;5021484;28;93267;-45
2022/01/27 11:28:32;;;;;;;;;;;-3.10;86.80;;;;;;5023799;28;94610;-44
2022/01/27 11:31:16;;;;;;;;;;;-3.10;86.60;;;;;;5021504;28;93664;-44
2022/01/27 11:33:44;;;;;;;;;;;-3.10;86.40;;;;;;5020210;28;95291;-44
2022/01/27 11:36:09;;;;;;;;;;;-3.10;86.40;;;;;;5021319;27;92199;-44
2022/01/27 11:38:36;;;;;;;;;;;-3.10;86.40;;;;;;5021300;28;93635;-44
2022/01/27 11:41:02;;;;;;;;;;;-3.10;86.40;;;;;;5019955;28;95037;-44
2022/01/27 11:43:34;;;;;;;;;;;-3.10;86.40;;;;;;5021423;28;91966;-44
2022/01/27 11:46:13;;;;;;;;;;;-3.10;86.40;;;;;;5021481;28;94322;-44
2022/01/27 11:48:39;;;;;;;;;;;-3.10;86.70;;;;;;5020751;28;94246;-44
2022/01/27 11:51:11;;;;;;;;;;;-3.00;86.40;;;;;;5024706;28;91196;-44
2022/01/27 11:53:42;;;;;;;;;;;-3.00;86.40;;;;;;5020475;28;94345;-44
2022/01/27 11:56:23;;;;;;;;;;;-3.00;86.30;;;;;;5021223;28;91983;-44
2022/01/27 11:58:50;;;;;;;;;;;-3.00;86.30;;;;;;5020430;28;92894;-44
2022/01/27 12:01:17;;;;;;;;;;;-3.00;86.50;;;;;;5020474;28;94588;-44
2022/01/27 12:04:01;;;;;;;;;;;-2.90;86.30;;;;;;5020848;28;92169;-44
2022/01/27 12:06:27;;;;;;;;;;;-2.90;86.50;;;;;;5020799;28;93847;-44
2022/01/27 12:09:12;;;;;;;;;;;-2.90;86.60;;;;;;5020359;28;94594;-44
2022/01/27 12:11:43;;;;;;;;;;;-2.90;86.50;;;;;;5020648;27;91944;-44
2022/01/27 12:14:09;;;;;;;;;;;-2.90;86.90;;;;;;5023266;28;94190;-44
2022/01/27 12:19:10;;;;;;;;;;;-2.90;86.90;;;;;;5020979;28;92769;-44
2022/01/27 12:21:38;;;;;;;;;;;-2.90;86.80;;;;;;5020254;28;94807;-45
2022/01/27 12:24:13;;;;;;;;;;;-2.80;86.70;;;;;;5020040;28;93136;-44
2022/01/27 12:26:45;;;;;;;;;;;-2.80;86.60;;;;;;5020694;28;95086;-44
2022/01/27 12:29:11;;;;;;;;;;;-2.80;86.60;;;;;;5019869;28;93581;-44
2022/01/27 12:31:39;;;;;;;;;;;-2.80;86.90;;;;;;5020449;28;92135;-44
2022/01/27 12:34:05;;;;;;;;;;;-2.80;86.80;;;;;;5023109;28;94316;-44
2022/01/27 12:36:30;;;;;;;;;;;-2.80;87.20;;;;;;5020727;28;92135;-44
2022/01/27 12:38:56;;;;;;;;;;;-2.80;87.00;;;;;;5020429;28;93830;-44
2022/01/27 12:41:21;;;;;;;;;;;-2.80;87.00;;;;;;5019727;28;93763;-44
2022/01/27 12:43:50;;;;;;;;;;;-2.80;86.90;;;;;;5020026;28;92381;-44
2022/01/27 12:46:15;;;;;;;;;;;-2.80;86.80;;;;;;5020478;28;94350;-45
2022/01/27 12:48:47;;;;;;;;;;;-2.80;86.90;;;;;;5019071;28;95250;-44
2022/01/27 12:51:13;;;;;;;;;;;-2.80;87.00;;;;;;5020161;28;92192;-44
2022/01/27 12:53:38;;;;;;;;;;;-2.80;87.10;;;;;;5020243;28;92520;-44
2022/01/27 12:56:08;;;;;;;;;;;-2.80;86.80;;;;;;5022691;28;94573;-44
2022/01/27 12:58:33;;;;;;;;;;;-2.80;86.80;;;;;;5020149;28;93612;-44
2022/01/27 13:01:01;;;;;;;;;;;-2.80;86.80;;;;;;5052114;27;94466;-44
2022/01/27 13:03:27;;;;;;;;;;;-2.70;86.60;;;;;;5020208;28;92121;-45
2022/01/27 13:05:54;;;;;;;;;;;-2.70;86.80;;;;;;5020584;28;93899;-44
2022/01/27 13:08:22;;;;;;;;;;;-2.80;86.60;;;;;;5019401;28;94772;-44
2022/01/27 13:10:49;;;;;;;;;;;-2.70;87.00;;;;;;5019892;28;92190;-44
2022/01/27 13:13:20;;;;;;;;;;;-2.70;86.80;;;;;;5019129;28;93988;-44
2022/01/27 13:15:46;;;;;;;;;;;-2.70;86.90;;;;;;5019621;28;94352;-44
2022/01/27 13:18:18;;;;;;;;;;;-2.70;86.90;;;;;;5023125;28;92133;-44
2022/01/27 13:20:48;;;;;;;;;;;-2.70;86.70;;;;;;5018029;28;96167;-45
2022/01/27 13:23:32;;;;;;;;;;;-2.70;86.70;;;;;;5019640;28;92061;-46
2022/01/27 13:26:05;;;;;;;;;;;-2.70;87.00;;;;;;5020012;28;94009;-44
2022/01/27 13:28:35;;;;;;;;;;;-2.70;87.00;;;;;;5019463;28;94493;-44
2022/01/27 13:31:05;;;;;;;;;;;-2.60;86.90;;;;;;5020093;28;91520;-44
2022/01/27 13:33:38;;;;;;;;;;;-2.60;86.80;;;;;;5019945;28;93013;-44
2022/01/27 13:36:07;;;;;;;;;;;-2.60;86.80;;;;;;5018844;28;94842;-44
2022/01/27 13:38:50;;;;;;;;;;;-2.70;87.00;;;;;;5018900;28;93121;-44
2022/01/27 13:41:18;;;;;;;;;;;-2.60;87.00;;;;;;5021931;28;95045;-45
2022/01/27 13:44:13;;;;;;;;;;;-2.60;87.00;;;;;;5022459;28;92172;-44
2022/01/27 13:46:39;;;;;;;;;;;-2.60;87.10;;;;;;5026086;28;93777;-44
2022/01/27 13:49:06;;;;;;;;;;;-2.60;87.20;;;;;;5022568;28;94285;-45
2022/01/27 13:51:31;;;;;;;;;;;-2.60;87.00;;;;;;5023142;28;92071;-44
2022/01/27 13:54:04;;;;;;;;;;;-2.60;87.00;;;;;;5023034;28;93757;-44
2022/01/27 13:56:42;;;;;;;;;;;-2.60;87.30;;;;;;5022939;28;93562;-44
2022/01/27 13:59:14;;;;;;;;;;;-2.60;86.90;;;;;;5022470;28;92311;-44
2022/01/27 14:01:40;;;;;;;;;;;-2.60;87.00;;;;;;5022849;28;93710;-45
2022/01/27 14:04:06;;;;;;;;;;;-2.50;86.90;;;;;;5024606;28;95481;-45
2022/01/27 14:06:31;;;;;;;;;;;-2.40;86.30;;;;;;5022831;28;94849;-44
2022/01/27 14:08:58;;;;;;;;;;;-2.50;86.50;;;;;;5022250;28;94533;-44
2022/01/27 14:11:34;;;;;;;;;;;-2.50;86.80;;;;;;5022615;28;92195;-45
2022/01/27 14:14:00;;;;;;;;;;;-2.50;86.80;;;;;;5022664;28;93875;-44
2022/01/27 14:16:27;;;;;;;;;;;-2.50;86.80;;;;;;5021982;28;94546;-44
2022/01/27 14:18:52;;;;;;;;;;;-2.40;86.80;;;;;;5022668;28;92216;-45
2022/01/27 14:21:25;;;;;;;;;;;-2.40;86.80;;;;;;5023036;28;93780;-44
2022/01/27 14:26:27;;;;;;;;;;;-2.40;86.90;;;;;;5025584;28;92158;-46
2022/01/27 14:28:53;;;;;;;;;;;-2.40;86.70;;;;;;5021255;28;95346;-44
2022/01/27 14:31:19;;;;;;;;;;;-2.40;86.70;;;;;;5022453;28;91999;-44
2022/01/27 14:33:44;;;;;;;;;;;-2.40;86.60;;;;;;5022416;28;93846;-44
2022/01/27 14:36:10;;;;;;;;;;;-2.40;86.60;;;;;;5022128;28;93046;-45
2022/01/27 14:38:36;;;;;;;;;;;-2.40;86.80;;;;;;5022099;28;92227;-45
2022/01/27 14:41:02;;;;;;;;;;;-2.40;86.80;;;;;;5021401;28;92944;-44
2022/01/27 14:43:30;;;;;;;;;;;-2.40;86.80;;;;;;5021899;28;94809;-44
2022/01/27 14:45:56;;;;;;;;;;;-2.40;86.70;;;;;;5025839;28;91403;-44
2022/01/27 14:48:21;;;;;;;;;;;-2.40;86.60;;;;;;5021715;28;94136;-44
2022/01/27 14:50:47;;;;;;;;;;;-2.30;86.60;;;;;;5022025;28;92164;-44
2022/01/27 14:53:12;;;;;;;;;;;-2.30;86.60;;;;;;5020858;28;93617;-44
2022/01/27 14:55:38;;;;;;;;;;;-2.40;86.60;;;;;;5020501;28;94544;-44
2022/01/27 14:58:04;;;;;;;;;;;-2.40;86.60;;;;;;5021820;28;92175;-44
2022/01/27 15:00:29;;;;;;;;;;;-2.30;86.50;;;;;;5021946;28;93838;-44
2022/01/27 15:02:55;;;;;;;;;;;-2.30;86.40;;;;;;5021492;28;92923;-44
2022/01/27 15:05:20;;;;;;;;;;;-2.30;86.30;;;;;;5021965;28;91850;-45